Time;durP1;ratioP1;P1;durP2;ratioP2;P2;SDS_P1;SDS_P2;PMS_P1;PMS_P2;Temp;Humidity;BMP_temperature;BMP_pressure;BME280_temperature;BME280_humidity;BME280_pressure;Samples;Min_cycle;Max_cycle;Signal;HPM_P1;HPM_P2
2023/10/26 00:02:09;;;;;;;44.45;29.42;;;12.00;99.90;;;12.16;86.60;98395.34;5040701;28;20548;-81
2023/10/26 00:04:37;;;;;;;44.53;29.83;;;12.00;99.90;;;12.04;87.15;98404.44;5039409;28;20132;-81
2023/10/26 00:07:05;;;;;;;41.92;28.13;;;11.90;99.90;;;12.01;87.37;98410.34;5029786;28;20509;-81
2023/10/26 00:09:33;;;;;;;35.90;25.75;;;11.90;99.90;;;11.91;87.29;98414.91;5021048;28;20569;-81
2023/10/26 00:12:00;;;;;;;35.25;24.95;;;11.80;99.90;;;11.82;87.98;98415.47;5052108;28;20529;-81
2023/10/26 00:14:28;;;;;;;37.72;23.38;;;11.80;99.90;;;11.88;88.05;98421.59;5052924;28;20068;-82
2023/10/26 00:16:55;;;;;;;32.45;21.95;;;11.80;99.90;;;11.94;88.03;98415.16;5019696;28;20061;-82
2023/10/26 00:19:24;;;;;;;35.20;22.08;;;11.80;99.90;;;11.98;87.94;98416.22;5052158;28;20041;-82
2023/10/26 00:21:53;;;;;;;29.67;20.88;;;11.80;99.90;;;12.00;87.39;98418.63;5020690;28;20516;-81
2023/10/26 00:24:21;;;;;;;29.55;19.88;;;11.90;99.90;;;12.02;86.97;98435.19;5019987;28;20121;-82
2023/10/26 00:26:49;;;;;;;30.10;20.23;;;11.90;99.90;;;12.02;86.66;98435.19;5003442;28;20484;-82
2023/10/26 00:29:16;;;;;;;27.90;19.58;;;11.90;99.90;;;11.98;86.67;98439.47;5021549;28;20073;-82
2023/10/26 00:31:44;;;;;;;27.20;18.63;;;11.80;99.90;;;11.94;86.69;98441.06;5038518;28;20073;-82
2023/10/26 00:34:12;;;;;;;29.33;20.52;;;11.80;99.90;;;11.93;86.56;98442.16;5040860;28;20124;-82
2023/10/26 00:36:41;;;;;;;27.23;19.27;;;11.80;99.90;;;11.94;87.08;98441.06;5039430;28;20057;-81
2023/10/26 00:39:08;;;;;;;25.17;18.38;;;11.80;99.90;;;11.92;87.08;98437.88;5039054;28;20037;-82
2023/10/26 00:41:37;;;;;;;26.02;19.35;;;11.80;99.90;;;11.89;86.74;98441.88;5038067;28;20046;-82
2023/10/26 00:44:05;;;;;;;29.25;19.67;;;11.80;99.90;;;11.90;86.61;98448.03;5019005;28;20049;-82
2023/10/26 00:46:33;;;;;;;26.00;19.05;;;11.80;99.90;;;11.85;86.58;98452.28;5026755;28;20038;-81
2023/10/26 00:49:00;;;;;;;27.60;19.02;;;11.80;99.90;;;11.88;86.83;98450.19;5039466;28;20041;-82
2023/10/26 00:51:28;;;;;;;25.58;19.63;;;11.70;99.90;;;11.92;86.98;98457.38;5040916;28;20060;-82
2023/10/26 00:53:57;;;;;;;26.40;18.75;;;11.80;99.90;;;11.90;86.60;98458.72;5038588;28;20587;-82
2023/10/26 00:56:27;;;;;;;26.17;18.83;;;11.70;99.90;;;11.88;86.50;98461.66;5019143;28;20509;-82
2023/10/26 00:58:56;;;;;;;24.25;18.13;;;11.70;99.90;;;11.82;86.31;98460.88;5035307;28;20057;-82
2023/10/26 01:01:24;;;;;;;24.05;17.95;;;11.70;99.90;;;11.85;86.47;98465.66;5021138;28;20069;-81
2023/10/26 01:03:53;;;;;;;23.38;16.40;;;11.70;99.90;;;11.76;86.38;98463.75;5025548;28;20038;-81
2023/10/26 01:06:20;;;;;;;25.58;17.35;;;11.70;99.90;;;11.80;86.71;98467.50;5054137;28;20053;-81
2023/10/26 01:08:48;;;;;;;22.48;17.77;;;11.70;99.90;;;11.80;87.00;98470.16;5019021;28;20478;-81
2023/10/26 01:11:17;;;;;;;27.70;17.77;;;11.70;99.90;;;11.80;86.39;98478.19;5036153;28;20116;-81
2023/10/26 01:13:45;;;;;;;25.10;17.50;;;11.70;99.90;;;11.73;86.25;98480.34;5036060;28;20053;-81
2023/10/26 01:16:15;;;;;;;21.95;16.40;;;11.70;99.90;;;11.65;86.46;98481.66;5019866;28;20077;-81
2023/10/26 01:18:43;;;;;;;25.35;17.38;;;11.60;99.90;;;11.61;87.13;98491.25;5018454;28;20065;-82
2023/10/26 01:21:11;;;;;;;26.02;17.38;;;11.60;99.90;;;11.67;87.08;98486.75;5019677;28;20065;-82
2023/10/26 01:23:40;;;;;;;23.70;16.83;;;11.60;99.90;;;11.69;87.03;98490.75;5038502;28;20045;-82
2023/10/26 01:26:07;;;;;;;23.13;16.40;;;11.60;99.90;;;11.58;87.00;98489.16;5038940;28;20059;-82
2023/10/26 01:28:35;;;;;;;20.83;15.63;;;11.60;99.90;;;11.63;87.67;98497.16;5022225;28;20260;-82
2023/10/26 01:31:02;;;;;;;22.30;14.70;;;11.60;99.90;;;11.69;87.39;98500.63;5038939;28;20049;-82
2023/10/26 01:33:30;;;;;;;18.80;14.93;;;11.60;99.90;;;11.67;87.21;98503.56;5035988;28;20034;-82
2023/10/26 01:35:57;;;;;;;20.45;14.93;;;11.60;99.90;;;11.71;87.42;98507.31;5018911;28;20049;-82
2023/10/26 01:38:24;;;;;;;19.63;14.32;;;11.60;99.90;;;11.78;87.31;98510.50;5019421;28;20038;-82
2023/10/26 01:40:53;;;;;;;18.73;14.65;;;11.70;99.90;;;11.78;86.90;98502.50;5020378;28;20046;-82
2023/10/26 01:43:21;;;;;;;21.40;14.80;;;11.70;99.90;;;11.78;86.32;98502.50;5018956;28;20128;-82
2023/10/26 01:45:50;;;;;;;17.25;13.38;;;11.70;99.90;;;11.79;86.79;98508.63;5025905;28;20049;-82
2023/10/26 01:48:18;;;;;;;18.35;13.73;;;11.60;99.90;;;11.70;86.89;98505.69;5038506;28;20151;-81
2023/10/26 01:50:45;;;;;;;18.35;14.00;;;11.60;99.90;;;11.76;87.22;98514.50;5031551;28;20034;-82
2023/10/26 01:53:13;;;;;;;20.33;15.93;;;11.60;99.90;;;11.75;86.48;98516.38;5018967;28;20109;-82
2023/10/26 01:55:41;;;;;;;20.65;15.65;;;11.60;99.90;;;11.73;86.81;98501.69;5020249;28;20150;-82
2023/10/26 01:58:10;;;;;;;23.30;17.55;;;11.60;99.90;;;11.71;86.31;98496.63;5030681;28;20069;-81
2023/10/26 02:00:38;;;;;;;22.83;16.35;;;11.60;99.90;;;11.64;86.65;98504.09;5038624;28;20087;-81
2023/10/26 02:03:05;;;;;;;22.70;17.05;;;11.50;99.90;;;11.64;86.78;98524.66;5039902;28;20034;-81
2023/10/26 02:05:34;;;;;;;23.70;18.55;;;11.50;99.90;;;11.66;87.00;98519.84;5035740;28;20049;-81
2023/10/26 02:08:02;;;;;;;24.13;17.92;;;11.50;99.90;;;11.71;87.21;98514.50;5019045;28;20073;-81
2023/10/26 02:10:33;;;;;;;28.52;19.38;;;11.50;99.90;;;11.74;86.85;98520.13;5035492;28;20461;-81
2023/10/26 02:13:01;;;;;;;24.77;19.15;;;11.60;99.90;;;11.76;86.63;98517.16;5022087;28;20057;-81
2023/10/26 02:15:29;;;;;;;26.27;20.00;;;11.60;99.90;;;11.78;86.57;98518.53;5031106;28;20465;-81
2023/10/26 02:17:57;;;;;;;26.13;19.88;;;11.60;99.90;;;11.76;86.26;98518.00;5018976;28;20421;-81
2023/10/26 02:20:24;;;;;;;31.27;21.60;;;11.60;99.90;;;11.72;86.01;98519.59;5051063;28;20045;-81
2023/10/26 02:22:52;;;;;;;29.63;21.30;;;11.60;99.90;;;11.70;86.21;98520.91;5051598;28;20038;-82
2023/10/26 02:25:20;;;;;;;30.17;21.50;;;11.60;99.90;;;11.71;86.02;98526.00;5023809;28;20079;-82
2023/10/26 02:27:49;;;;;;;31.23;22.35;;;11.60;99.90;;;11.62;85.80;98534.81;5039150;28;20095;-82
2023/10/26 02:30:17;;;;;;;27.90;21.42;;;11.50;99.90;;;11.59;86.34;98539.59;5038853;28;20574;-81
2023/10/26 02:32:45;;;;;;;28.67;21.55;;;11.50;99.90;;;11.64;86.60;98535.34;5036041;28;20099;-81
2023/10/26 02:35:13;;;;;;;26.38;20.00;;;11.50;99.90;;;11.69;86.69;98540.69;5019315;28;20049;-82
2023/10/26 02:37:40;;;;;;;27.83;20.30;;;11.60;99.90;;;11.60;86.07;98530.53;5020350;28;20042;-82
2023/10/26 02:40:10;;;;;;;29.13;21.17;;;11.50;99.90;;;11.65;86.53;98535.06;5020524;28;20041;-82
2023/10/26 02:42:38;;;;;;;26.70;20.25;;;11.50;99.90;;;11.69;86.29;98541.47;5035650;28;20409;-81
2023/10/26 02:45:08;;;;;;;25.25;20.13;;;11.60;99.90;;;11.73;86.17;98550.56;5020014;28;20104;-81
2023/10/26 02:47:37;;;;;;;28.90;20.63;;;11.60;99.90;;;11.70;85.79;98542.28;5053167;28;20056;-81
2023/10/26 02:50:07;;;;;;;28.33;21.20;;;11.50;99.90;;;11.71;85.88;98549.22;5035918;28;20061;-81
2023/10/26 02:52:37;;;;;;;25.47;19.80;;;11.50;99.90;;;11.73;85.76;98547.91;5053417;28;20100;-81
2023/10/26 02:55:05;;;;;;;23.27;18.70;;;11.60;99.90;;;11.69;85.09;98556.69;5021194;28;20034;-81
2023/10/26 02:57:33;;;;;;;27.60;19.30;;;11.60;99.90;;;11.67;85.76;98559.66;5021904;28;20089;-81
2023/10/26 03:00:05;;;;;;;26.88;20.70;;;11.50;99.90;;;11.64;85.34;98549.50;5023199;28;20072;-81
2023/10/26 03:02:31;;;;;;;25.42;19.45;;;11.50;99.90;;;11.65;85.92;98545.75;5034056;28;20049;-82
2023/10/26 03:04:58;;;;;;;25.00;19.73;;;11.50;99.90;;;11.70;86.03;98548.41;5045184;28;20041;-82
2023/10/26 03:07:27;;;;;;;26.48;20.55;;;11.60;99.90;;;11.73;86.01;98539.09;5047041;28;20057;-82
2023/10/26 03:09:55;;;;;;;32.15;24.38;;;11.60;99.90;;;11.68;84.98;98545.22;5046839;28;20049;-82
2023/10/26 03:12:23;;;;;;;30.83;21.73;;;11.50;99.90;;;11.63;85.82;98553.22;5047197;28;20500;-82
2023/10/26 03:14:51;;;;;;;30.90;22.67;;;11.50;99.90;;;11.70;85.84;98559.09;5046269;28;20046;-82
2023/10/26 03:17:19;;;;;;;27.20;21.50;;;11.60;99.90;;;11.74;85.84;98560.19;5031442;28;20063;-82
2023/10/26 03:19:47;;;;;;;33.60;23.80;;;11.60;99.90;;;11.72;85.67;98559.66;5029674;28;20081;-82
2023/10/26 03:22:14;;;;;;;33.80;25.15;;;11.50;99.90;;;11.73;85.75;98555.91;5027126;28;20117;-82
2023/10/26 03:24:43;;;;;;;31.05;23.33;;;11.50;99.90;;;11.69;85.10;98554.84;5027383;28;20524;-82
2023/10/26 03:27:11;;;;;;;32.03;22.67;;;11.50;99.90;;;11.69;85.70;98562.84;5029211;28;20069;-82
2023/10/26 03:29:38;;;;;;;33.30;23.83;;;11.50;99.90;;;11.70;85.47;98561.78;5062682;28;20050;-82
2023/10/26 03:32:07;;;;;;;35.28;24.70;;;11.60;99.90;;;11.72;85.97;98553.50;5029250;28;20045;-81
2023/10/26 03:34:36;;;;;;;33.70;25.45;;;11.60;99.90;;;11.75;85.78;98556.44;5030656;28;20132;-81
2023/10/26 03:37:04;;;;;;;28.83;21.95;;;11.60;99.90;;;11.78;85.67;98558.59;5039124;28;20093;-81
2023/10/26 03:39:31;;;;;;;31.70;24.00;;;11.60;99.90;;;11.78;85.54;98555.13;5040384;28;20065;-81
2023/10/26 03:42:00;;;;;;;33.85;24.48;;;11.60;99.90;;;11.78;85.45;98568.47;5058533;28;20046;-81
2023/10/26 03:44:28;;;;;;;31.05;23.70;;;11.60;99.90;;;11.76;85.43;98555.38;5054650;28;20056;-81
2023/10/26 03:46:55;;;;;;;30.70;23.88;;;11.60;99.90;;;11.80;85.43;98556.44;5042682;28;20057;-81
2023/10/26 03:49:23;;;;;;;31.23;24.27;;;11.60;99.90;;;11.83;85.15;98565.84;5055569;28;20049;-81
2023/10/26 03:51:50;;;;;;;31.02;22.85;;;11.70;99.90;;;11.84;85.30;98562.09;5042349;28;20033;-81
2023/10/26 03:54:18;;;;;;;29.75;22.10;;;11.70;99.90;;;11.83;85.18;98555.16;5055971;28;20512;-81
2023/10/26 03:56:46;;;;;;;25.88;20.40;;;11.60;99.90;;;11.84;85.17;98564.75;5056305;28;20056;-81
2023/10/26 03:59:15;;;;;;;28.92;20.77;;;11.60;99.90;;;11.86;85.06;98554.63;5041853;28;20099;-81
2023/10/26 04:01:42;;;;;;;28.63;21.45;;;11.60;99.90;;;11.83;84.34;98558.63;5020679;28;20034;-81
2023/10/26 04:04:09;;;;;;;25.50;19.75;;;11.60;99.90;;;11.82;84.85;98562.34;5020334;28;20046;-81
2023/10/26 04:06:37;;;;;;;23.75;18.20;;;11.60;99.90;;;11.83;85.21;98558.63;5002995;28;20046;-82
2023/10/26 04:09:05;;;;;;;24.08;19.02;;;11.60;99.90;;;11.82;85.04;98557.03;5019581;28;20124;-82
2023/10/26 04:11:32;;;;;;;26.50;20.10;;;11.60;99.90;;;11.83;84.82;98560.50;5020475;28;20034;-84
2023/10/26 04:14:00;;;;;;;25.92;20.08;;;11.60;99.90;;;11.81;84.92;98552.72;5020087;28;20041;-82
2023/10/26 04:16:31;;;;;;;27.40;20.95;;;11.60;99.90;;;11.78;84.46;98560.47;4990689;28;20050;-83
2023/10/26 04:18:59;;;;;;;28.75;21.40;;;11.60;99.90;;;11.79;84.60;98562.84;5019427;28;20081;-84
2023/10/26 04:21:28;;;;;;;28.95;21.60;;;11.60;99.90;;;11.77;84.69;98565.00;5017797;28;20104;-85
2023/10/26 04:23:55;;;;;;;28.08;22.08;;;11.60;99.90;;;11.79;85.00;98562.84;5025669;28;20042;-84
2023/10/26 04:26:23;;;;;;;32.45;22.42;;;11.60;99.90;;;11.80;84.82;98564.44;5036195;28;20140;-84
2023/10/26 04:28:50;;;;;;;35.72;23.73;;;11.60;99.90;;;11.79;84.61;98560.19;5035490;28;20072;-84
2023/10/26 04:31:18;;;;;;;34.28;24.80;;;11.60;99.90;;;11.80;84.58;98563.66;5038171;28;20051;-83
2023/10/26 04:33:47;;;;;;;34.05;24.10;;;11.60;99.90;;;11.82;84.69;98565.03;5038177;28;20129;-83
2023/10/26 04:36:15;;;;;;;32.53;25.08;;;11.60;99.90;;;11.80;84.56;98569.78;5004848;28;20057;-84
2023/10/26 04:38:42;;;;;;;33.25;25.05;;;11.60;99.90;;;11.77;84.30;98569.53;5038106;28;20056;-83
2023/10/26 04:41:13;;;;;;;35.47;25.13;;;11.60;99.90;;;11.75;84.35;98574.31;5037584;28;20045;-84
2023/10/26 04:43:41;;;;;;;32.25;24.80;;;11.60;99.90;;;11.74;84.45;98567.38;5024855;28;20468;-84
2023/10/26 04:46:09;;;;;;;34.40;25.00;;;11.50;99.90;;;11.70;84.00;98568.97;5028233;28;20061;-85
2023/10/26 04:48:37;;;;;;;34.00;25.65;;;11.50;99.90;;;11.69;84.67;98570.06;5023780;28;20050;-84
2023/10/26 04:51:06;;;;;;;36.58;24.55;;;11.50;99.90;;;11.69;84.91;98567.38;5039798;28;20513;-83
2023/10/26 04:53:34;;;;;;;31.15;23.65;;;11.50;99.90;;;11.67;84.59;98567.66;5019598;28;20041;-84
2023/10/26 04:56:02;;;;;;;36.15;24.95;;;11.50;99.90;;;11.64;84.85;98573.53;4989473;28;20046;-82
2023/10/26 04:58:30;;;;;;;34.58;25.10;;;11.50;99.90;;;11.56;84.82;98566.81;5024751;28;20184;-82
2023/10/26 05:00:59;;;;;;;34.95;24.17;;;11.40;99.90;;;11.57;85.30;98570.31;5024901;28;20053;-81
2023/10/26 05:03:27;;;;;;;36.70;24.30;;;11.40;99.90;;;11.63;85.27;98563.13;5026799;28;20054;-81
2023/10/26 05:05:54;;;;;;;36.17;23.83;;;11.50;99.90;;;11.63;85.18;98560.44;5028825;28;20090;-81
2023/10/26 05:08:23;;;;;;;33.63;23.48;;;11.50;99.90;;;11.65;84.65;98561.75;5026331;28;20050;-81
2023/10/26 05:10:50;;;;;;;37.03;24.83;;;11.50;99.90;;;11.68;84.89;98571.13;5026598;28;20523;-81
2023/10/26 05:13:18;;;;;;;36.85;25.63;;;11.50;99.90;;;11.69;84.68;98562.84;5028380;28;20501;-81
2023/10/26 05:15:46;;;;;;;38.92;27.25;;;11.50;99.90;;;11.70;84.64;98559.09;5028366;28;20049;-81
2023/10/26 05:18:13;;;;;;;33.45;25.02;;;11.50;99.90;;;11.72;84.61;98565.00;5027017;28;20049;-81
2023/10/26 05:20:46;;;;;;;39.00;25.80;;;11.50;99.90;;;11.67;84.46;98562.31;5026876;28;20505;-82
2023/10/26 05:23:14;;;;;;;35.75;24.92;;;11.50;99.90;;;11.69;84.58;98554.84;5028515;28;20056;-82
2023/10/26 05:25:43;;;;;;;34.42;25.30;;;11.50;99.90;;;11.70;84.56;98563.63;5027142;28;20034;-82
2023/10/26 05:28:11;;;;;;;37.28;25.10;;;11.60;99.90;;;11.70;84.34;98559.09;4982003;28;20425;-82
2023/10/26 05:30:39;;;;;;;35.83;25.10;;;11.60;99.90;;;11.70;84.45;98556.44;5007824;28;20042;-81
2023/10/26 05:33:06;;;;;;;37.15;24.38;;;11.60;99.90;;;11.69;84.05;98549.50;5039461;28;20060;-83
2023/10/26 05:35:34;;;;;;;35.20;25.13;;;11.50;99.90;;;11.68;83.78;98553.22;5011974;28;20106;-82
2023/10/26 05:38:01;;;;;;;34.35;24.30;;;11.50;99.90;;;11.67;84.23;98551.63;5025742;28;20041;-82
2023/10/26 05:40:30;;;;;;;38.83;26.00;;;11.50;99.90;;;11.61;84.08;98544.66;5027037;28;20390;-82
2023/10/26 05:42:59;;;;;;;35.95;25.02;;;11.40;99.90;;;11.58;83.93;98550.56;5025035;28;20060;-82
2023/10/26 05:45:26;;;;;;;39.40;25.20;;;11.40;99.90;;;11.56;84.46;98548.13;5025938;28;20044;-82
2023/10/26 05:47:54;;;;;;;40.80;24.73;;;11.30;99.90;;;11.61;84.68;98547.34;5025682;28;20462;-82
2023/10/26 05:50:22;;;;;;;36.38;24.27;;;11.40;99.90;;;11.62;84.55;98551.63;4992944;28;20049;-82
2023/10/26 05:52:50;;;;;;;41.88;27.08;;;11.40;99.90;;;11.60;84.65;98545.75;5028515;28;20061;-81
2023/10/26 05:55:19;;;;;;;37.55;26.67;;;11.40;99.90;;;11.63;84.83;98537.22;5026148;28;20104;-81
2023/10/26 05:57:46;;;;;;;38.33;25.55;;;11.40;99.90;;;11.65;84.33;98545.75;5009299;28;20072;-81
2023/10/26 06:00:16;;;;;;;39.13;26.48;;;11.50;99.90;;;11.65;84.62;98539.59;5026152;28;20046;-81
2023/10/26 06:02:43;;;;;;;42.85;28.23;;;11.50;99.90;;;11.64;84.25;98540.69;5026043;28;20417;-81
2023/10/26 06:05:11;;;;;;;43.63;28.40;;;11.50;99.90;;;11.66;84.40;98543.88;5027453;28;20042;-81
2023/10/26 06:07:38;;;;;;;46.03;28.92;;;11.50;99.90;;;11.66;84.23;98542.00;5026800;28;20119;-81
2023/10/26 06:10:09;;;;;;;42.78;28.33;;;11.50;99.90;;;11.68;83.92;98541.75;5025861;28;20137;-81
2023/10/26 06:12:37;;;;;;;45.53;28.95;;;11.50;99.90;;;11.69;83.89;98551.38;5026273;28;20425;-81
2023/10/26 06:15:05;;;;;;;45.15;28.48;;;11.50;99.90;;;11.68;83.73;98553.22;5028885;28;20053;-81
2023/10/26 06:17:34;;;;;;;48.30;29.38;;;11.50;99.90;;;11.67;83.84;98553.50;5025423;28;20048;-81
2023/10/26 06:20:01;;;;;;;45.83;30.15;;;11.50;99.90;;;11.68;83.91;98560.44;5006921;28;20131;-81
2023/10/26 06:55:25;;;;;;;46.45;30.80;;;11.40;99.90;;;11.53;84.50;98588.72;5023987;28;20052;-81
2023/10/26 06:57:52;;;;;;;52.95;33.03;;;11.40;99.90;;;11.55;84.12;98581.25;5021407;28;20073;-81
2023/10/26 07:00:20;;;;;;;52.50;32.67;;;11.40;99.90;;;11.57;84.35;98578.31;5021478;28;20050;-81
2023/10/26 07:02:48;;;;;;;50.90;31.45;;;11.50;99.90;;;11.59;84.37;98578.84;5023583;28;20065;-81
2023/10/26 07:05:16;;;;;;;49.17;31.90;;;11.40;99.90;;;11.59;84.39;98579.66;5025643;28;20088;-81
2023/10/26 07:07:44;;;;;;;51.97;32.25;;;11.50;99.90;;;11.60;84.19;98575.91;5025481;28;20049;-81
2023/10/26 07:10:15;;;;;;;51.60;32.22;;;11.50;99.90;;;11.62;84.39;98577.53;5022445;28;20065;-81
2023/10/26 07:12:44;;;;;;;54.75;34.05;;;11.50;99.90;;;11.64;84.10;98580.72;5055614;28;20056;-81
2023/10/26 07:15:12;;;;;;;54.38;33.20;;;11.50;99.90;;;11.64;84.32;98576.19;5008014;28;20502;-81
2023/10/26 07:17:39;;;;;;;54.05;33.42;;;11.50;99.90;;;11.65;84.35;98577.78;5022473;28;20513;-81
2023/10/26 07:20:08;;;;;;;60.53;34.58;;;11.50;99.90;;;11.65;84.17;98567.09;5016480;28;20072;-81
2023/10/26 07:22:36;;;;;;;55.60;33.15;;;11.50;99.90;;;11.66;84.20;98568.69;5016644;28;20524;-81
2023/10/26 07:25:05;;;;;;;51.92;33.13;;;11.50;99.90;;;11.65;84.06;98575.13;5018919;28;20081;-81
2023/10/26 07:27:32;;;;;;;54.92;33.00;;;11.50;99.90;;;11.65;83.77;98580.44;5017971;28;20505;-81
2023/10/26 07:30:01;;;;;;;56.00;33.33;;;11.50;99.90;;;11.67;83.75;98569.53;5016617;28;20516;-81
2023/10/26 07:32:29;;;;;;;53.40;31.55;;;11.50;99.90;;;11.67;83.92;98569.53;5019012;28;20303;-81
2023/10/26 07:34:58;;;;;;;55.33;32.78;;;11.50;99.90;;;11.64;83.67;98565.50;5020307;28;20048;-81
2023/10/26 07:37:26;;;;;;;59.80;34.70;;;11.50;99.90;;;11.64;83.65;98568.19;5017601;28;20464;-81
2023/10/26 07:39:53;;;;;;;53.83;32.55;;;11.50;99.90;;;11.64;83.66;98570.03;5018595;28;20049;-81
2023/10/26 07:42:20;;;;;;;60.83;33.70;;;11.50;99.90;;;11.68;83.65;98571.94;5017365;28;20050;-81
2023/10/26 07:44:52;;;;;;;55.42;33.22;;;11.50;99.90;;;11.69;83.79;98573.53;5016180;28;20088;-81
2023/10/26 07:47:22;;;;;;;56.20;33.33;;;11.60;99.90;;;11.70;83.67;98569.78;5017806;28;20057;-81
2023/10/26 07:49:49;;;;;;;58.58;33.55;;;11.60;99.90;;;11.71;84.08;98565.25;5017683;28;20073;-81
2023/10/26 07:52:17;;;;;;;55.75;33.35;;;11.60;99.90;;;11.72;83.93;98553.50;5021437;28;20073;-81
2023/10/26 07:54:45;;;;;;;55.35;33.72;;;11.60;99.90;;;11.73;84.07;98552.44;5005456;28;20488;-81
2023/10/26 07:57:13;;;;;;;58.22;35.00;;;11.60;99.90;;;11.74;83.96;98559.38;5020870;28;20100;-81
2023/10/26 07:59:43;;;;;;;56.17;34.50;;;11.60;99.90;;;11.74;83.75;98551.38;5054140;28;20058;-81
2023/10/26 08:02:10;;;;;;;58.70;35.20;;;11.60;99.90;;;11.75;83.81;98550.28;5022109;28;20145;-81
2023/10/26 08:04:40;;;;;;;57.55;34.22;;;11.70;99.90;;;11.76;83.59;98554.56;5026359;28;20390;-81
2023/10/26 08:07:08;;;;;;;55.97;34.35;;;11.60;99.90;;;11.76;83.55;98555.38;5026121;28;20050;-81
2023/10/26 08:09:35;;;;;;;56.80;34.55;;;11.70;99.90;;;11.77;83.62;98562.31;5028083;28;20052;-81
2023/10/26 08:12:04;;;;;;;55.70;34.15;;;11.70;99.90;;;11.78;83.44;98555.91;4992623;28;20389;-81
2023/10/26 08:14:32;;;;;;;51.85;30.85;;;11.70;99.90;;;11.79;83.49;98554.84;5022960;28;20084;-81
2023/10/26 08:16:59;;;;;;;52.35;32.22;;;11.70;99.90;;;11.81;83.38;98558.06;5021453;28;20042;-81
2023/10/26 08:19:27;;;;;;;54.15;31.35;;;11.70;99.90;;;11.84;83.33;98567.44;5020949;28;20050;-81
2023/10/26 08:21:56;;;;;;;52.00;30.80;;;11.80;99.90;;;11.85;83.34;98569.03;5022557;28;20520;-81
2023/10/26 08:24:24;;;;;;;50.65;30.65;;;11.70;99.90;;;11.84;83.40;98572.78;5021257;28;20072;-81
2023/10/26 08:26:53;;;;;;;51.70;30.15;;;11.70;99.90;;;11.83;83.16;98574.63;5025437;28;20049;-81
2023/10/26 08:29:21;;;;;;;49.03;29.58;;;11.70;99.90;;;11.81;83.07;98565.28;5024886;28;20056;-81
2023/10/26 08:31:48;;;;;;;48.95;29.65;;;11.70;99.90;;;11.84;83.39;98562.88;5026171;28;20068;-81
2023/10/26 08:34:16;;;;;;;45.40;28.80;;;11.70;99.90;;;11.85;83.31;98561.81;5026738;28;20053;-81
2023/10/26 08:36:44;;;;;;;47.17;28.45;;;11.70;99.90;;;11.87;83.49;98566.91;5025736;28;20046;-81
2023/10/26 08:39:13;;;;;;;41.88;27.80;;;11.70;99.90;;;11.89;83.49;98563.97;5024812;28;20049;-81
2023/10/26 08:41:46;;;;;;;42.33;27.52;;;11.80;99.90;;;11.87;83.43;98572.25;5009681;28;20041;-80
2023/10/26 08:44:13;;;;;;;40.22;26.30;;;11.70;99.90;;;11.89;83.48;98577.31;5025186;28;20104;-80
2023/10/26 08:46:41;;;;;;;36.03;23.98;;;11.80;99.90;;;11.84;82.78;98586.91;5025020;28;20053;-81
2023/10/26 08:49:10;;;;;;;39.00;24.13;;;11.70;99.90;;;11.85;83.20;98585.84;5026287;28;20104;-81
2023/10/26 08:51:37;;;;;;;40.05;25.70;;;11.80;99.90;;;11.89;82.98;98588.81;5026151;28;20046;-81
2023/10/26 08:54:06;;;;;;;39.92;25.30;;;11.80;99.90;;;11.87;82.81;98592.81;5021476;28;20197;-81
2023/10/26 08:56:34;;;;;;;41.00;25.55;;;11.80;99.90;;;11.77;81.46;98591.72;5020883;28;20042;-81
2023/10/26 08:59:03;;;;;;;44.75;26.50;;;11.60;99.90;;;11.78;82.21;98595.16;5003607;28;20045;-83
2023/10/26 09:01:30;;;;;;;45.08;26.42;;;11.60;99.90;;;11.80;82.57;98595.69;5003400;28;20494;-83
2023/10/26 09:03:58;;;;;;;45.60;27.40;;;11.70;99.90;;;11.81;82.31;98594.66;5008509;28;20620;-83
2023/10/26 09:06:43;;;;;;;46.20;26.70;;;11.70;99.90;;;11.84;82.09;98605.63;5022520;28;20121;-83
2023/10/26 09:09:10;;;;;;;40.78;26.08;;;11.70;99.90;;;11.87;82.02;98608.84;5019832;28;20054;-84
2023/10/26 09:11:39;;;;;;;44.38;25.92;;;11.70;99.90;;;11.87;82.43;98606.97;5019192;28;20054;-84
2023/10/26 09:14:15;;;;;;;41.83;26.33;;;11.80;99.90;;;11.84;82.03;98608.28;5020769;28;20061;-82
2023/10/26 09:16:45;;;;;;;43.10;26.25;;;11.80;99.90;;;11.91;82.63;98602.72;5024619;28;20387;-82
2023/10/26 09:19:13;;;;;;;45.95;26.80;;;11.80;99.90;;;11.96;82.33;98607.25;5024450;28;20432;-82
2023/10/26 09:21:51;;;;;;;55.88;30.33;;;11.90;99.90;;;11.92;82.27;98612.31;5023476;28;20049;-82
2023/10/26 09:24:21;;;;;;;51.50;30.10;;;11.80;99.90;;;11.93;82.38;98621.13;5024628;28;20061;-82
2023/10/26 09:26:50;;;;;;;52.65;30.45;;;11.80;99.90;;;11.84;82.08;98623.53;5005233;28;20073;-82
2023/10/26 09:29:19;;;;;;;52.50;30.88;;;11.80;99.90;;;11.81;81.99;98619.50;5023421;28;20041;-82
2023/10/26 09:31:56;;;;;;;46.58;29.25;;;11.70;99.90;;;11.88;82.56;98629.13;5023537;28;20046;-82
2023/10/26 09:34:27;;;;;;;46.63;27.67;;;11.80;99.90;;;11.90;82.37;98613.63;5023512;28;20096;-82
2023/10/26 09:37:02;;;;;;;48.10;29.05;;;11.80;99.90;;;11.94;82.93;98617.38;5024248;28;20437;-82
2023/10/26 09:39:31;;;;;;;43.15;26.90;;;11.90;99.90;;;11.98;82.84;98613.91;5024680;28;20054;-82
2023/10/26 09:42:01;;;;;;;44.92;27.92;;;11.90;99.90;;;12.02;82.36;98612.31;5023591;28;20148;-82
2023/10/26 09:44:30;;;;;;;44.92;28.13;;;12.00;99.90;;;12.04;81.98;98614.72;5023557;28;20050;-82
2023/10/26 09:46:58;;;;;;;43.30;27.95;;;12.00;99.90;;;11.97;81.44;98606.19;5022409;28;20509;-82
2023/10/26 09:49:27;;;;;;;41.63;26.77;;;12.00;99.90;;;12.07;81.38;98603.50;5020776;28;20440;-82
2023/10/26 09:51:58;;;;;;;41.20;27.48;;;12.10;99.90;;;12.18;81.85;98602.44;5022614;28;20072;-82
2023/10/26 09:54:29;;;;;;;50.22;30.05;;;12.10;99.90;;;12.10;80.99;98600.28;5022587;28;20470;-82
2023/10/26 09:57:08;;;;;;;50.70;30.20;;;12.10;99.90;;;12.25;82.36;98608.34;5022531;28;20048;-82
2023/10/26 09:59:37;;;;;;;53.33;30.98;;;12.30;99.90;;;12.34;83.25;98606.69;5022776;28;20046;-82
2023/10/26 10:02:16;;;;;;;54.53;31.35;;;12.40;99.90;;;12.41;83.55;98608.31;5022673;28;20056;-82
2023/10/26 10:04:46;;;;;;;52.75;31.02;;;12.50;99.90;;;12.41;81.31;98605.66;5021976;28;20049;-82
2023/10/26 10:07:18;;;;;;;53.90;31.80;;;12.50;99.90;;;12.44;81.43;98599.75;5021118;28;20082;-82
2023/10/26 10:18:30;;;;;;;48.05;29.45;;;12.50;99.90;;;12.48;82.29;98606.16;4971803;28;20138;-83
2023/10/26 10:20:58;;;;;;;46.45;28.77;;;12.50;99.90;;;12.57;82.95;98604.53;4981440;28;20074;-82
2023/10/26 10:23:32;;;;;;;47.90;30.67;;;12.60;99.90;;;12.63;82.67;98606.13;4981876;28;20105;-82
2023/10/26 10:26:00;;;;;;;47.60;29.33;;;12.70;99.90;;;12.60;82.25;98604.81;4982948;28;20587;-82
2023/10/26 10:28:48;;;;;;;45.22;28.33;;;12.70;99.90;;;12.65;82.51;98605.88;4982241;28;20055;-83
2023/10/26 10:31:24;;;;;;;46.35;30.45;;;12.70;99.90;;;12.61;81.94;98602.94;4983002;28;20075;-82
2023/10/26 10:34:05;;;;;;;42.95;27.55;;;12.70;99.90;;;12.59;81.85;98603.22;4982428;28;20442;-83
2023/10/26 10:37:10;;;;;;;44.88;27.70;;;12.70;99.90;;;12.65;82.24;98603.22;4983393;28;20057;-83
2023/10/26 10:39:38;;;;;;;47.90;27.90;;;12.70;99.90;;;12.63;81.53;98592.75;4933739;28;20414;-83
2023/10/26 10:42:11;;;;;;;40.65;26.58;;;12.70;99.90;;;12.60;81.25;98594.13;4982662;28;20097;-83
2023/10/26 10:44:39;;;;;;;39.58;26.35;;;12.60;99.90;;;12.65;82.18;98589.84;4964992;28;20145;-83
2023/10/26 10:47:06;;;;;;;36.30;24.83;;;12.70;99.90;;;12.69;82.83;98586.34;4993645;28;20049;-82
2023/10/26 10:49:35;;;;;;;35.00;22.83;;;12.70;99.90;;;12.73;82.81;98589.25;5020641;28;20084;-82
2023/10/26 10:52:15;;;;;;;36.88;22.83;;;12.80;99.90;;;12.73;82.17;98592.72;5020566;28;20049;-82
2023/10/26 10:54:50;;;;;;;34.75;22.67;;;12.70;99.90;;;12.72;81.80;98583.13;5019398;28;20061;-82